Time;durP1;ratioP1;P1;durP2;ratioP2;P2;SDS_P1;SDS_P2;PMS_P1;PMS_P2;Temp;Humidity;BMP_temperature;BMP_pressure;BME280_temperature;BME280_humidity;BME280_pressure;Samples;Min_cycle;Max_cycle;Signal;HPM_P1;HPM_P2
2024/01/04 00:01:38;;;;;;;5.13;1.45;;;8.10;99.90;;;;;;4979235;28;20042;-80
2024/01/04 00:04:04;;;;;;;5.38;1.65;;;8.10;99.90;;;;;;4961652;28;20045;-81
2024/01/04 00:06:31;;;;;;;5.60;1.75;;;8.10;99.90;;;;;;4961540;28;20034;-81
2024/01/04 00:08:57;;;;;;;8.18;2.78;;;8.10;99.90;;;;;;4959110;28;20030;-80
2024/01/04 00:11:24;;;;;;;6.57;2.38;;;8.20;99.90;;;;;;4976707;28;20077;-79
2024/01/04 00:13:50;;;;;;;10.82;4.13;;;8.20;99.90;;;;;;4959859;28;20030;-78
2024/01/04 00:16:16;;;;;;;8.23;3.95;;;8.20;99.90;;;;;;4960292;28;20060;-80
2024/01/04 00:18:43;;;;;;;15.52;6.45;;;8.20;99.90;;;;;;4944360;28;20046;-81
2024/01/04 00:21:12;;;;;;;13.50;5.70;;;8.20;99.90;;;;;;4959781;28;20030;-80
2024/01/04 00:23:39;;;;;;;12.60;5.55;;;8.20;99.90;;;;;;4976145;28;20034;-82
2024/01/04 00:26:05;;;;;;;10.75;4.40;;;8.20;99.90;;;;;;4976410;28;20034;-80
2024/01/04 00:28:32;;;;;;;10.38;4.50;;;8.20;99.90;;;;;;4976436;28;20077;-79
2024/01/04 00:30:58;;;;;;;8.18;3.80;;;8.20;99.90;;;;;;4944831;28;21054;-81
2024/01/04 00:33:24;;;;;;;11.40;4.25;;;8.20;99.90;;;;;;4961122;28;20053;-80
2024/01/04 00:35:51;;;;;;;11.02;4.28;;;8.20;99.90;;;;;;4991851;28;20031;-77
2024/01/04 00:38:17;;;;;;;11.68;4.88;;;8.20;99.90;;;;;;4943920;28;20485;-81
2024/01/04 00:40:44;;;;;;;8.70;4.22;;;8.20;99.90;;;;;;4962319;28;20038;-80
2024/01/04 00:43:10;;;;;;;7.68;5.18;;;8.20;99.90;;;;;;4965798;28;20516;-80
2024/01/04 00:45:37;;;;;;;12.00;3.20;;;8.20;99.90;;;;;;4962765;28;20034;-81
2024/01/04 00:48:03;;;;;;;9.82;5.13;;;8.10;99.90;;;;;;4978933;28;20046;-79
2024/01/04 00:50:30;;;;;;;9.10;4.82;;;8.10;99.90;;;;;;4980905;28;20686;-79
2024/01/04 00:52:57;;;;;;;8.05;4.20;;;8.10;99.90;;;;;;4996014;28;20038;-78
2024/01/04 00:55:26;;;;;;;11.13;4.32;;;8.10;99.90;;;;;;4962988;28;20507;-80
2024/01/04 00:57:53;;;;;;;12.00;6.65;;;8.10;99.90;;;;;;4962830;28;20046;-81
2024/01/04 01:00:19;;;;;;;23.58;8.05;;;8.10;99.90;;;;;;4963704;28;20489;-80
2024/01/04 01:02:45;;;;;;;16.63;7.07;;;8.10;99.90;;;;;;4977387;28;20394;-78
2024/01/04 01:05:12;;;;;;;11.63;5.90;;;8.10;99.90;;;;;;4979582;28;20044;-80
2024/01/04 01:07:38;;;;;;;9.43;4.88;;;8.20;99.90;;;;;;4962798;28;20034;-81
2024/01/04 01:10:04;;;;;;;8.77;5.55;;;8.10;99.90;;;;;;4980473;28;20044;-81
2024/01/04 01:12:31;;;;;;;7.13;4.88;;;8.20;99.90;;;;;;4948542;28;20038;-80
2024/01/04 01:14:57;;;;;;;7.75;3.40;;;8.20;99.90;;;;;;4964530;28;20041;-78
2024/01/04 01:17:23;;;;;;;12.27;5.40;;;8.20;99.90;;;;;;4978273;28;20038;-80
2024/01/04 01:19:50;;;;;;;8.40;4.38;;;8.20;99.90;;;;;;4959113;28;20049;-79
2024/01/04 01:22:16;;;;;;;13.75;6.03;;;8.20;99.90;;;;;;4977493;28;20488;-80
2024/01/04 01:24:42;;;;;;;16.20;6.00;;;8.20;99.90;;;;;;4959527;28;20035;-79
2024/01/04 01:27:08;;;;;;;13.30;5.70;;;8.20;99.90;;;;;;4976699;28;20042;-77
2024/01/04 01:29:35;;;;;;;9.27;5.60;;;8.20;99.90;;;;;;4979138;28;20274;-79
2024/01/04 01:32:01;;;;;;;12.68;6.47;;;8.20;99.90;;;;;;4963299;28;20093;-78
2024/01/04 01:34:28;;;;;;;17.60;7.45;;;8.20;99.90;;;;;;4961370;28;20030;-80
2024/01/04 01:36:54;;;;;;;16.75;6.88;;;8.20;99.90;;;;;;4945025;28;20072;-80
2024/01/04 01:39:20;;;;;;;12.15;7.05;;;8.20;99.90;;;;;;4945753;28;20038;-77
2024/01/04 01:41:46;;;;;;;14.13;7.53;;;8.10;99.90;;;;;;4977749;28;20037;-80
2024/01/04 01:44:13;;;;;;;13.90;7.00;;;8.10;99.90;;;;;;4961955;28;20053;-79
2024/01/04 01:46:39;;;;;;;8.15;5.30;;;8.10;99.90;;;;;;4978689;28;20026;-80
2024/01/04 01:49:06;;;;;;;13.82;7.72;;;8.10;99.90;;;;;;4976104;28;20042;-79
2024/01/04 01:51:32;;;;;;;17.70;7.95;;;8.10;99.90;;;;;;4978055;28;20478;-78
2024/01/04 01:53:59;;;;;;;20.83;8.50;;;8.10;99.90;;;;;;4960614;28;20413;-78
2024/01/04 01:56:26;;;;;;;13.98;7.10;;;8.10;99.90;;;;;;4976772;28;20504;-78
2024/01/04 01:58:52;;;;;;;11.50;6.28;;;8.10;99.90;;;;;;4994255;28;20041;-79
2024/01/04 02:01:19;;;;;;;16.73;7.05;;;8.10;99.90;;;;;;4944978;28;20030;-77
2024/01/04 02:03:46;;;;;;;14.25;7.03;;;8.10;99.90;;;;;;4974708;28;20050;-79
2024/01/04 02:06:12;;;;;;;14.75;8.45;;;8.10;99.90;;;;;;4945019;28;20053;-77
2024/01/04 02:08:39;;;;;;;11.75;6.25;;;8.00;99.90;;;;;;4978292;28;20440;-80
2024/01/04 02:11:06;;;;;;;13.98;6.85;;;8.00;99.90;;;;;;4960796;28;20042;-78
2024/01/04 02:13:32;;;;;;;15.10;7.85;;;8.00;99.90;;;;;;4961290;28;20050;-78
2024/01/04 02:15:58;;;;;;;17.15;7.85;;;8.00;99.90;;;;;;4975617;28;20034;-78
2024/01/04 02:18:25;;;;;;;8.98;5.32;;;8.00;99.90;;;;;;4958303;28;20034;-78
2024/01/04 02:20:51;;;;;;;16.15;6.63;;;8.00;99.90;;;;;;4960429;28;20042;-79
2024/01/04 02:23:18;;;;;;;15.27;6.05;;;8.00;99.90;;;;;;4976639;28;20065;-79
2024/01/04 02:25:44;;;;;;;19.92;7.20;;;8.00;99.90;;;;;;4961184;28;20476;-80
2024/01/04 02:28:11;;;;;;;8.95;4.88;;;8.00;99.90;;;;;;4992979;28;20045;-79
2024/01/04 02:30:38;;;;;;;13.25;5.28;;;8.00;99.90;;;;;;4959486;28;20042;-79
2024/01/04 02:33:04;;;;;;;16.10;6.10;;;8.00;99.90;;;;;;4991682;28;20042;-79
2024/01/04 02:35:30;;;;;;;18.13;7.35;;;8.00;99.90;;;;;;4944055;28;20035;-80
2024/01/04 02:37:57;;;;;;;12.35;5.85;;;8.00;99.90;;;;;;4944127;28;20485;-79
2024/01/04 02:40:24;;;;;;;14.13;6.28;;;8.00;99.90;;;;;;4976181;28;20038;-77
2024/01/04 02:42:50;;;;;;;23.55;6.03;;;8.00;99.90;;;;;;4976708;28;20045;-76
2024/01/04 02:45:16;;;;;;;13.98;4.95;;;8.00;99.90;;;;;;4975023;28;20038;-79
2024/01/04 02:47:43;;;;;;;9.00;4.82;;;8.00;99.90;;;;;;4976907;28;20042;-80
2024/01/04 02:50:09;;;;;;;18.92;5.97;;;7.90;99.90;;;;;;4977003;28;20366;-79
2024/01/04 02:52:36;;;;;;;11.13;5.38;;;8.00;99.90;;;;;;4976653;28;20042;-77
2024/01/04 02:55:03;;;;;;;9.00;4.28;;;7.90;99.90;;;;;;4974156;28;20474;-79
2024/01/04 02:57:30;;;;;;;7.38;3.80;;;7.90;99.90;;;;;;4977134;28;20033;-79
2024/01/04 02:59:56;;;;;;;7.43;3.55;;;7.80;99.90;;;;;;4960727;28;20246;-80
2024/01/04 03:02:22;;;;;;;9.88;4.10;;;7.80;99.90;;;;;;4961701;28;20041;-80
2024/01/04 03:04:49;;;;;;;15.30;4.25;;;7.80;99.90;;;;;;4977990;28;20397;-78
2024/01/04 03:07:15;;;;;;;13.00;3.58;;;7.80;99.90;;;;;;4960410;28;20046;-79
2024/01/04 03:09:41;;;;;;;14.07;4.10;;;7.80;99.90;;;;;;4977507;28;20047;-79
2024/01/04 03:12:08;;;;;;;11.07;3.92;;;7.80;99.90;;;;;;4980123;28;20045;-80
2024/01/04 03:14:34;;;;;;;12.70;4.60;;;7.80;99.90;;;;;;4979828;28;20053;-77
2024/01/04 03:17:01;;;;;;;8.65;3.78;;;7.80;99.90;;;;;;4958014;28;20049;-78
2024/01/04 03:19:27;;;;;;;18.70;4.68;;;7.70;99.90;;;;;;4978507;28;20049;-77
2024/01/04 03:21:53;;;;;;;12.27;4.82;;;7.70;99.90;;;;;;4960757;28;20045;-80
2024/01/04 03:24:20;;;;;;;11.02;4.50;;;7.70;99.90;;;;;;4977878;28;20398;-80
2024/01/04 03:26:46;;;;;;;10.25;3.85;;;7.80;99.90;;;;;;4962774;28;20043;-80
2024/01/04 03:29:12;;;;;;;11.65;4.85;;;7.80;99.90;;;;;;4945617;28;20134;-78
2024/01/04 03:31:39;;;;;;;15.65;5.13;;;7.80;99.90;;;;;;4961923;28;20046;-79
2024/01/04 03:34:05;;;;;;;12.52;4.50;;;7.80;99.90;;;;;;4960579;28;20343;-80
2024/01/04 03:36:31;;;;;;;12.68;5.88;;;7.80;99.90;;;;;;4977400;28;20022;-80
2024/01/04 03:38:58;;;;;;;12.13;4.53;;;7.80;99.90;;;;;;4980361;28;20038;-77
2024/01/04 03:41:25;;;;;;;13.80;5.25;;;7.80;99.90;;;;;;4993466;28;20676;-79
2024/01/04 03:43:51;;;;;;;12.98;4.90;;;7.70;99.90;;;;;;4962479;28;20385;-79
2024/01/04 03:46:18;;;;;;;11.82;4.55;;;7.70;99.90;;;;;;4962281;28;20038;-78
2024/01/04 03:48:44;;;;;;;15.88;4.63;;;7.80;99.90;;;;;;4992544;28;20499;-79
2024/01/04 03:51:12;;;;;;;11.38;4.97;;;7.80;99.90;;;;;;4962646;28;20452;-79
2024/01/04 03:53:38;;;;;;;15.20;5.13;;;7.80;99.90;;;;;;4979615;28;20038;-78
2024/01/04 03:56:05;;;;;;;14.90;4.68;;;7.80;99.90;;;;;;4948113;28;20049;-79
2024/01/04 03:58:32;;;;;;;12.43;5.43;;;7.80;99.90;;;;;;4964037;28;20030;-76
2024/01/04 04:01:00;;;;;;;10.55;4.35;;;7.80;99.90;;;;;;4980228;28;20480;-79
2024/01/04 04:03:27;;;;;;;11.43;3.65;;;7.80;99.90;;;;;;4979336;28;20045;-79
2024/01/04 04:05:53;;;;;;;10.82;2.92;;;7.80;99.90;;;;;;4980735;28;20041;-78
2024/01/04 04:08:19;;;;;;;11.45;3.38;;;7.80;99.90;;;;;;4950498;28;20038;-79
2024/01/04 04:10:46;;;;;;;7.43;3.28;;;7.80;99.90;;;;;;4980381;28;20030;-79
2024/01/04 04:13:12;;;;;;;9.57;3.13;;;7.80;99.90;;;;;;4979130;28;20037;-79
2024/01/04 04:15:38;;;;;;;10.70;3.42;;;7.80;99.90;;;;;;4981058;28;20038;-79
2024/01/04 04:18:05;;;;;;;12.73;3.80;;;7.90;99.90;;;;;;4963340;28;20030;-77
2024/01/04 04:20:31;;;;;;;7.00;3.10;;;7.80;99.90;;;;;;4948236;28;20030;-78
2024/01/04 04:22:57;;;;;;;13.60;2.85;;;7.90;99.90;;;;;;4998471;28;20038;-79
2024/01/04 04:25:25;;;;;;;8.75;3.58;;;7.90;99.90;;;;;;4962274;28;20038;-77
2024/01/04 04:27:51;;;;;;;11.23;3.58;;;7.80;99.90;;;;;;4962536;28;20062;-77
2024/01/04 04:30:19;;;;;;;9.48;3.10;;;7.90;99.90;;;;;;4963517;28;20575;-80
2024/01/04 04:32:46;;;;;;;10.63;4.10;;;7.90;99.90;;;;;;4964400;28;20038;-78
2024/01/04 04:35:13;;;;;;;6.35;3.03;;;7.80;99.90;;;;;;4978517;28;20030;-77
2024/01/04 04:37:39;;;;;;;10.00;3.45;;;7.90;99.90;;;;;;4980513;28;20034;-79
2024/01/04 04:40:06;;;;;;;8.77;3.50;;;7.90;99.90;;;;;;4978227;28;20409;-78
2024/01/04 04:42:32;;;;;;;12.50;4.18;;;7.80;99.90;;;;;;4981257;28;20061;-78
2024/01/04 04:45:00;;;;;;;12.23;3.60;;;7.80;99.90;;;;;;4980111;28;20026;-79
2024/01/04 04:47:27;;;;;;;9.82;3.70;;;7.80;99.90;;;;;;4961945;28;20819;-79
2024/01/04 04:49:53;;;;;;;10.15;3.35;;;7.90;99.90;;;;;;4976777;28;20034;-79
2024/01/04 04:52:19;;;;;;;7.78;3.00;;;7.90;99.90;;;;;;4978942;28;20039;-77
2024/01/04 04:54:46;;;;;;;5.97;2.95;;;7.90;99.90;;;;;;4962712;28;20042;-77
2024/01/04 04:57:12;;;;;;;9.80;2.50;;;7.90;99.90;;;;;;4977356;28;20030;-78
2024/01/04 04:59:38;;;;;;;10.45;3.28;;;7.90;99.90;;;;;;4978332;28;20516;-80
2024/01/04 05:02:05;;;;;;;6.78;2.80;;;7.90;99.90;;;;;;4962991;28;20030;-79
2024/01/04 05:04:31;;;;;;;7.85;3.42;;;7.90;99.90;;;;;;4979664;28;20027;-79
2024/01/04 05:06:58;;;;;;;14.55;4.10;;;8.00;99.90;;;;;;4977575;28;20577;-75
2024/01/04 05:09:24;;;;;;;8.00;3.47;;;7.90;99.90;;;;;;4962231;28;20026;-79
2024/01/04 05:11:50;;;;;;;11.52;3.95;;;8.00;99.90;;;;;;4978416;28;20030;-81
2024/01/04 05:14:17;;;;;;;13.40;3.97;;;7.90;99.90;;;;;;4979674;28;20034;-80
2024/01/04 05:16:44;;;;;;;11.60;3.80;;;8.00;99.90;;;;;;4977940;28;20026;-80
2024/01/04 05:19:10;;;;;;;16.88;5.28;;;8.00;99.90;;;;;;4977798;28;20052;-80
2024/01/04 05:21:37;;;;;;;17.73;4.43;;;7.90;99.90;;;;;;4977288;28;20042;-80
2024/01/04 05:24:03;;;;;;;10.57;3.97;;;7.90;99.90;;;;;;4977986;28;20046;-81
2024/01/04 05:26:30;;;;;;;10.18;4.78;;;7.90;99.90;;;;;;4977471;28;20065;-82
2024/01/04 05:28:57;;;;;;;10.48;4.30;;;7.90;99.90;;;;;;4963263;28;20034;-81
2024/01/04 05:31:25;;;;;;;10.13;4.95;;;7.90;99.90;;;;;;4980269;28;20389;-79
2024/01/04 05:33:51;;;;;;;16.27;6.70;;;7.90;99.90;;;;;;4947059;28;20027;-82
2024/01/04 05:36:17;;;;;;;11.65;5.55;;;7.90;99.90;;;;;;4964701;28;20037;-80
2024/01/04 05:38:44;;;;;;;12.93;5.35;;;7.80;99.90;;;;;;4960819;28;20022;-80
2024/01/04 05:41:10;;;;;;;13.52;5.05;;;7.80;99.90;;;;;;4978135;28;20492;-80
2024/01/04 05:43:36;;;;;;;10.57;4.63;;;7.80;99.90;;;;;;4963342;28;20036;-80
2024/01/04 05:46:06;;;;;;;9.27;4.65;;;7.80;99.90;;;;;;4979925;28;20030;-80
2024/01/04 05:48:32;;;;;;;9.95;4.45;;;7.80;99.90;;;;;;4993645;28;20037;-80
2024/01/04 05:50:59;;;;;;;9.95;4.72;;;7.80;99.90;;;;;;4978130;28;20042;-80
2024/01/04 05:53:26;;;;;;;5.88;3.20;;;7.80;99.90;;;;;;4977100;28;20465;-79
2024/01/04 05:55:52;;;;;;;8.38;3.13;;;7.80;99.90;;;;;;4976399;28;20500;-79
2024/01/04 05:58:19;;;;;;;8.43;3.15;;;7.80;99.90;;;;;;4976388;28;20045;-80
2024/01/04 06:00:45;;;;;;;10.45;4.25;;;7.80;99.90;;;;;;4978791;28;20041;-79
2024/01/04 06:03:12;;;;;;;6.28;3.00;;;7.80;99.90;;;;;;4960039;28;20022;-77
2024/01/04 06:05:38;;;;;;;11.10;3.63;;;7.80;99.90;;;;;;4947614;28;20453;-79
2024/01/04 06:08:05;;;;;;;7.68;2.92;;;7.80;99.90;;;;;;4976821;28;20354;-79
2024/01/04 06:10:31;;;;;;;6.63;3.00;;;7.80;99.90;;;;;;4994197;28;20060;-79
2024/01/04 06:12:57;;;;;;;7.72;2.92;;;7.80;99.90;;;;;;4961218;28;20023;-79
2024/01/04 06:15:24;;;;;;;9.05;2.90;;;7.80;99.90;;;;;;4994776;28;20023;-78
2024/01/04 06:17:50;;;;;;;9.70;3.83;;;7.80;99.90;;;;;;4992958;28;20507;-79
2024/01/04 06:20:16;;;;;;;7.68;3.03;;;7.80;99.90;;;;;;4962288;28;20034;-80
2024/01/04 06:22:43;;;;;;;6.22;2.83;;;7.80;99.90;;;;;;4984709;28;20473;-80
2024/01/04 06:25:10;;;;;;;8.13;2.60;;;7.80;99.90;;;;;;4986078;28;20037;-80
2024/01/04 06:27:36;;;;;;;7.55;2.97;;;7.80;99.90;;;;;;4961488;28;21391;-78
2024/01/04 06:30:03;;;;;;;7.05;2.28;;;7.80;99.90;;;;;;4981641;28;20034;-80
2024/01/04 06:32:29;;;;;;;7.40;3.00;;;7.80;99.90;;;;;;4979395;28;20702;-80
2024/01/04 06:34:56;;;;;;;5.65;2.35;;;7.80;99.90;;;;;;4980485;28;20030;-80
2024/01/04 06:37:22;;;;;;;7.72;3.45;;;7.80;99.90;;;;;;4976698;28;20069;-78
2024/01/04 06:39:50;;;;;;;13.55;4.40;;;7.80;99.90;;;;;;4978165;28;20041;-79
2024/01/04 06:42:20;;;;;;;9.73;4.32;;;7.80;99.90;;;;;;4960972;28;20037;-80
2024/01/04 06:44:47;;;;;;;8.68;3.83;;;7.80;99.90;;;;;;4995949;28;20026;-80
2024/01/04 06:47:14;;;;;;;11.95;3.97;;;7.80;99.90;;;;;;4944104;28;20031;-79
2024/01/04 06:49:41;;;;;;;7.93;3.50;;;7.80;99.90;;;;;;4977622;28;20057;-81
2024/01/04 06:52:08;;;;;;;10.38;3.85;;;7.80;99.90;;;;;;4978848;28;20038;-78
2024/01/04 06:54:34;;;;;;;9.55;3.72;;;7.80;99.90;;;;;;4978254;28;20034;-80
2024/01/04 06:57:02;;;;;;;9.73;3.83;;;7.80;99.90;;;;;;4978658;28;20500;-77
2024/01/04 06:59:28;;;;;;;7.70;3.17;;;7.80;99.90;;;;;;4978650;28;20062;-80
2024/01/04 07:01:55;;;;;;;10.88;2.97;;;7.80;99.90;;;;;;4979267;28;20492;-80
2024/01/04 07:04:21;;;;;;;9.00;3.83;;;7.80;99.90;;;;;;4978649;28;20030;-80
2024/01/04 07:06:48;;;;;;;6.82;2.88;;;7.80;99.90;;;;;;4976711;28;20022;-77
2024/01/04 07:09:14;;;;;;;9.40;3.70;;;7.80;99.90;;;;;;4944318;28;20038;-79
2024/01/04 07:11:41;;;;;;;11.68;4.35;;;7.80;99.90;;;;;;4978098;28;20030;-79
2024/01/04 07:14:09;;;;;;;8.95;3.90;;;7.80;99.90;;;;;;4977324;28;20034;-80
2024/01/04 07:16:43;;;;;;;10.48;4.00;;;7.80;99.90;;;;;;4978291;28;20022;-79
2024/01/04 07:19:09;;;;;;;16.65;5.53;;;7.80;99.90;;;;;;4977073;28;20054;-78
2024/01/04 07:21:35;;;;;;;10.45;4.32;;;7.80;99.90;;;;;;4977478;28;20373;-79
2024/01/04 07:24:02;;;;;;;10.48;3.75;;;7.80;99.90;;;;;;4977963;28;20106;-78
2024/01/04 07:26:28;;;;;;;10.93;3.63;;;7.80;99.90;;;;;;4964975;28;20050;-79
2024/01/04 07:28:55;;;;;;;9.73;3.53;;;7.80;99.90;;;;;;4980514;28;20042;-78
2024/01/04 07:31:21;;;;;;;8.90;2.78;;;7.80;99.90;;;;;;4980149;28;20045;-79
2024/01/04 07:33:48;;;;;;;8.38;3.40;;;7.80;99.90;;;;;;4965437;28;20026;-77
2024/01/04 07:36:15;;;;;;;9.98;2.63;;;7.80;99.90;;;;;;4983114;28;20034;-78
2024/01/04 07:38:42;;;;;;;7.78;3.22;;;7.80;99.90;;;;;;4981390;28;20026;-80
2024/01/04 07:41:08;;;;;;;9.02;3.20;;;7.90;99.90;;;;;;4981383;28;20037;-80
2024/01/04 07:43:35;;;;;;;11.68;4.85;;;7.90;99.90;;;;;;4948035;28;20038;-78
2024/01/04 07:46:01;;;;;;;10.07;3.92;;;7.90;99.90;;;;;;4980231;28;20030;-79
2024/01/04 07:48:27;;;;;;;12.27;4.68;;;7.90;99.90;;;;;;4965803;28;20604;-80
2024/01/04 07:50:55;;;;;;;15.30;5.38;;;7.90;99.90;;;;;;4964517;28;20030;-79
2024/01/04 07:53:22;;;;;;;14.02;5.35;;;7.90;99.90;;;;;;4963465;28;20042;-79
2024/01/04 07:55:48;;;;;;;11.63;5.18;;;7.90;99.90;;;;;;4980504;28;20080;-79
2024/01/04 07:58:14;;;;;;;10.38;4.68;;;7.90;99.90;;;;;;4980382;28;20465;-80
2024/01/04 08:00:40;;;;;;;14.00;6.25;;;7.90;99.90;;;;;;4946909;28;20033;-80
2024/01/04 08:03:07;;;;;;;14.00;5.70;;;7.90;99.90;;;;;;4963741;28;20030;-80
2024/01/04 08:05:33;;;;;;;12.40;5.43;;;7.90;99.90;;;;;;4993387;28;20050;-79
2024/01/04 08:07:59;;;;;;;12.25;5.22;;;7.80;99.90;;;;;;4962523;28;20034;-80
2024/01/04 08:10:26;;;;;;;11.52;5.35;;;7.80;99.90;;;;;;4965737;28;20045;-80
2024/01/04 08:12:52;;;;;;;12.00;5.78;;;7.80;99.90;;;;;;4948353;28;20473;-80
2024/01/04 08:15:18;;;;;;;11.93;5.72;;;7.80;99.90;;;;;;4998110;28;20436;-80
2024/01/04 08:17:45;;;;;;;10.10;4.90;;;7.80;99.90;;;;;;4963580;28;20033;-78
2024/01/04 08:20:13;;;;;;;13.73;6.32;;;7.80;99.90;;;;;;4982318;28;20042;-80
2024/01/04 08:22:40;;;;;;;13.88;6.32;;;7.80;99.90;;;;;;4984605;28;20043;-79
2024/01/04 08:25:08;;;;;;;14.20;6.10;;;7.80;99.90;;;;;;4984992;28;20046;-78
2024/01/04 08:27:34;;;;;;;13.93;5.60;;;7.80;99.90;;;;;;4985079;28;20289;-78
2024/01/04 08:30:01;;;;;;;18.27;6.30;;;7.90;99.90;;;;;;4979779;28;20033;-79
2024/01/04 08:32:27;;;;;;;14.13;6.13;;;7.90;99.90;;;;;;4981019;28;20378;-77
2024/01/04 08:34:53;;;;;;;11.85;5.88;;;7.90;99.90;;;;;;4979788;28;20030;-78
2024/01/04 08:37:20;;;;;;;14.82;6.25;;;7.90;99.90;;;;;;4996041;28;20050;-78
2024/01/04 08:39:46;;;;;;;14.02;5.70;;;8.00;99.90;;;;;;4980993;28;20030;-79
2024/01/04 08:42:13;;;;;;;12.50;6.00;;;8.00;99.90;;;;;;4978855;28;20033;-79
2024/01/04 08:44:41;;;;;;;10.70;6.15;;;8.00;99.90;;;;;;4996609;28;20034;-78
2024/01/04 08:47:07;;;;;;;15.80;6.95;;;8.00;99.90;;;;;;4963093;28;20393;-79
2024/01/04 08:49:34;;;;;;;13.18;5.90;;;8.00;99.90;;;;;;4980501;28;20050;-78
2024/01/04 08:52:01;;;;;;;14.90;6.93;;;8.00;99.90;;;;;;4964200;28;20363;-77
2024/01/04 08:54:28;;;;;;;13.43;6.80;;;8.00;99.90;;;;;;4978107;28;20042;-79
2024/01/04 08:56:54;;;;;;;15.05;7.72;;;8.00;99.90;;;;;;4961692;28;20118;-79
2024/01/04 08:59:21;;;;;;;13.30;6.28;;;8.00;99.90;;;;;;4979621;28;20027;-78
2024/01/04 09:01:47;;;;;;;14.95;7.88;;;8.00;99.90;;;;;;4994099;28;20038;-79
2024/01/04 09:04:14;;;;;;;15.32;7.80;;;8.10;99.90;;;;;;4996497;28;20038;-79
2024/01/04 09:06:40;;;;;;;17.92;7.38;;;8.10;99.90;;;;;;4979426;28;20034;-79
2024/01/04 09:09:07;;;;;;;16.35;7.05;;;8.10;99.90;;;;;;4980889;28;20054;-79
2024/01/04 09:11:39;;;;;;;12.57;6.18;;;8.10;99.90;;;;;;4977235;28;20038;-78
2024/01/04 09:14:11;;;;;;;14.05;7.10;;;8.10;99.90;;;;;;4979646;28;20054;-79
2024/01/04 09:16:39;;;;;;;15.75;7.25;;;8.10;99.90;;;;;;4946266;28;20085;-80
2024/01/04 09:19:06;;;;;;;17.63;7.85;;;8.10;99.90;;;;;;4978478;28;20049;-80
2024/01/04 09:21:32;;;;;;;14.52;6.85;;;8.10;99.90;;;;;;4960830;28;20042;-79
2024/01/04 09:23:59;;;;;;;15.98;7.90;;;8.10;99.90;;;;;;4977691;28;20053;-80
2024/01/04 09:26:25;;;;;;;13.55;6.90;;;8.10;99.90;;;;;;4977503;28;20053;-79
2024/01/04 09:28:51;;;;;;;15.52;7.32;;;8.10;99.90;;;;;;4960484;28;20030;-80
2024/01/04 09:31:18;;;;;;;14.70;6.80;;;8.10;99.90;;;;;;4976718;28;20450;-81
2024/01/04 09:33:44;;;;;;;10.77;6.45;;;8.10;99.90;;;;;;4993129;28;20038;-80
2024/01/04 09:36:10;;;;;;;13.75;7.25;;;8.20;99.90;;;;;;4978512;28;20061;-79
2024/01/04 09:38:39;;;;;;;11.70;5.45;;;8.20;99.90;;;;;;4962666;28;20038;-78
2024/01/04 09:41:30;;;;;;;12.52;6.07;;;8.30;99.90;;;;;;4978480;28;20030;-78
2024/01/04 09:44:00;;;;;;;12.48;7.32;;;8.30;99.90;;;;;;4976859;28;20033;-79
2024/01/04 09:46:33;;;;;;;12.27;7.13;;;8.40;99.90;;;;;;4992809;28;20034;-78
2024/01/04 09:48:59;;;;;;;13.50;7.55;;;8.50;99.90;;;;;;4978907;28;20049;-80
2024/01/04 09:51:28;;;;;;;12.98;6.85;;;8.40;99.90;;;;;;4962328;28;20498;-79
2024/01/04 09:53:55;;;;;;;11.88;7.28;;;8.40;99.90;;;;;;4978725;28;20027;-79
2024/01/04 09:56:23;;;;;;;18.17;10.48;;;8.50;99.90;;;;;;4944807;28;20030;-80
2024/01/04 09:58:50;;;;;;;16.45;10.57;;;8.40;99.90;;;;;;4944374;28;20030;-79
2024/01/04 10:01:23;;;;;;;14.55;9.07;;;8.50;99.90;;;;;;4978455;28;20050;-83
2024/01/04 10:03:53;;;;;;;12.48;7.68;;;8.50;99.90;;;;;;4963858;28;20049;-79
2024/01/04 10:06:24;;;;;;;21.80;12.88;;;8.50;99.90;;;;;;4978328;28;20504;-85
2024/01/04 10:08:59;;;;;;;20.63;12.27;;;8.50;99.90;;;;;;4961669;28;20031;-81
2024/01/04 10:11:31;;;;;;;19.10;11.52;;;8.50;99.90;;;;;;4979268;28;20034;-80
2024/01/04 10:13:58;;;;;;;22.63;11.82;;;8.60;99.90;;;;;;4977738;28;20041;-81
2024/01/04 10:16:24;;;;;;;17.40;9.50;;;8.50;99.90;;;;;;4974922;28;20041;-81
2024/01/04 10:18:52;;;;;;;17.70;8.73;;;8.60;99.90;;;;;;4960428;28;20038;-82
2024/01/04 10:21:18;;;;;;;16.48;8.70;;;8.60;99.90;;;;;;4977587;28;20047;-79
2024/01/04 10:23:44;;;;;;;21.88;11.65;;;8.60;99.90;;;;;;4978988;28;20065;-83
2024/01/04 10:26:13;;;;;;;21.55;11.48;;;8.60;99.90;;;;;;4944440;28;20049;-81
2024/01/04 10:28:39;;;;;;;18.40;10.25;;;8.60;99.90;;;;;;4975309;28;20049;-81
2024/01/04 10:31:09;;;;;;;18.40;9.95;;;8.60;99.90;;;;;;4976742;28;20600;-80
2024/01/04 10:33:37;;;;;;;17.33;9.43;;;8.50;99.90;;;;;;4978041;28;20038;-78
2024/01/04 10:36:10;;;;;;;15.15;8.48;;;8.50;99.90;;;;;;4974669;28;20058;-83
2024/01/04 10:38:37;;;;;;;17.58;9.88;;;8.50;99.90;;;;;;4974973;28;20034;-81
2024/01/04 10:41:04;;;;;;;18.10;9.57;;;8.50;99.90;;;;;;4976274;28;20038;-79
2024/01/04 10:43:34;;;;;;;18.27;8.65;;;8.50;99.90;;;;;;4960826;28;20521;-82
2024/01/04 10:46:10;;;;;;;18.42;9.55;;;8.40;99.90;;;;;;4976050;28;20042;-79
2024/01/04 10:48:37;;;;;;;16.92;7.70;;;8.40;99.90;;;;;;4975642;28;20031;-82
2024/01/04 10:51:06;;;;;;;17.85;10.55;;;8.40;99.90;;;;;;4993396;28;20425;-80
2024/01/04 10:53:36;;;;;;;18.27;10.55;;;8.50;99.90;;;;;;4959856;28;20064;-83
2024/01/04 10:56:07;;;;;;;19.25;11.68;;;8.50;99.90;;;;;;4974624;28;20045;-80
2024/01/04 10:58:40;;;;;;;19.53;12.70;;;8.50;99.90;;;;;;4974005;28;20034;-80
2024/01/04 11:01:06;;;;;;;15.90;10.48;;;8.50;99.90;;;;;;4982446;28;20065;-80
2024/01/04 11:03:32;;;;;;;18.23;12.60;;;8.50;99.90;;;;;;4980257;28;20377;-80
2024/01/04 11:06:00;;;;;;;16.80;12.25;;;8.50;99.90;;;;;;4980158;28;20042;-82
2024/01/04 11:08:27;;;;;;;15.98;11.65;;;8.60;99.90;;;;;;4982972;28;20046;-80
2024/01/04 11:10:54;;;;;;;16.38;12.02;;;8.60;99.90;;;;;;4999282;28;20473;-78
2024/01/04 11:13:21;;;;;;;19.58;14.40;;;8.70;99.90;;;;;;4981892;28;20475;-83
2024/01/04 11:15:51;;;;;;;17.23;13.50;;;8.70;99.90;;;;;;4966903;28;20469;-81
2024/01/04 11:18:46;;;;;;;18.25;14.45;;;8.80;99.90;;;;;;4949746;28;20037;-80
2024/01/04 11:21:12;;;;;;;16.73;14.30;;;8.80;99.90;;;;;;4947696;28;20043;-81
2024/01/04 11:23:52;;;;;;;19.10;13.25;;;8.90;99.90;;;;;;4982692;28;20034;-82
2024/01/04 11:26:27;;;;;;;14.63;11.32;;;8.90;99.90;;;;;;4965814;28;20085;-80
2024/01/04 11:28:57;;;;;;;18.05;12.43;;;8.90;99.90;;;;;;4948288;28;20495;-82
2024/01/04 11:31:24;;;;;;;18.77;11.77;;;9.00;99.90;;;;;;4982442;28;20085;-78
2024/01/04 11:33:51;;;;;;;15.27;11.43;;;9.00;99.90;;;;;;4949502;28;20039;-80
2024/01/04 11:36:19;;;;;;;13.18;9.50;;;9.10;99.90;;;;;;4980555;28;20026;-78
2024/01/04 11:38:50;;;;;;;13.38;10.73;;;9.20;99.90;;;;;;4997600;28;20037;-80
2024/01/04 11:41:17;;;;;;;13.15;10.40;;;9.30;99.90;;;;;;4998561;28;20414;-81
2024/01/04 11:43:44;;;;;;;17.90;11.60;;;9.40;99.90;;;;;;4967371;28;20040;-80
2024/01/04 11:46:26;;;;;;;12.30;8.68;;;9.40;99.90;;;;;;4980266;28;20037;-80
2024/01/04 11:48:58;;;;;;;11.23;8.85;;;9.40;99.90;;;;;;4982250;28;20034;-81
2024/01/04 11:51:31;;;;;;;;;;;9.40;99.90;;;;;;4979237;28;20034;-78
2024/01/04 11:53:57;;;;;;;12.60;10.43;;;9.30;99.90;;;;;;4966775;28;20323;-81
2024/01/04 11:56:24;;;;;;;16.08;9.68;;;9.40;99.90;;;;;;4983816;28;20033;-80
2024/01/04 11:58:50;;;;;;;16.48;9.50;;;9.30;99.90;;;;;;4982025;28;20027;-80
2024/01/04 12:01:23;;;;;;;13.38;9.23;;;9.40;99.90;;;;;;4966042;28;20432;-78
2024/01/04 12:03:51;;;;;;;;;;;9.30;99.90;;;;;;4983629;28;20049;-78
2024/01/04 12:06:23;;;;;;;16.88;11.50;;;9.40;99.90;;;;;;4983037;28;20257;-79
2024/01/04 12:08:49;;;;;;;13.20;9.68;;;9.30;99.90;;;;;;4983578;28;20504;-80
2024/01/04 12:11:19;;;;;;;12.48;8.98;;;9.30;99.90;;;;;;4981512;28;20049;-80
2024/01/04 12:13:46;;;;;;;18.25;10.40;;;9.30;99.90;;;;;;4988164;28;20034;-80
2024/01/04 12:16:13;;;;;;;13.95;8.75;;;9.20;99.90;;;;;;4982471;28;20034;-79
2024/01/04 12:18:39;;;;;;;11.90;8.25;;;9.30;99.90;;;;;;4981151;28;20038;-75
2024/01/04 12:21:07;;;;;;;11.68;9.27;;;9.30;99.90;;;;;;4982659;28;20034;-77
2024/01/04 12:23:35;;;;;;;12.98;9.18;;;9.30;99.90;;;;;;4962978;28;20041;-80
2024/01/04 12:26:02;;;;;;;12.73;10.38;;;9.40;99.90;;;;;;4959306;28;20512;-78
2024/01/04 12:28:28;;;;;;;18.27;11.70;;;9.40;99.90;;;;;;4963348;28;20031;-78
2024/01/04 12:30:55;;;;;;;16.38;12.05;;;9.50;99.90;;;;;;4980494;28;20401;-78
2024/01/04 12:33:21;;;;;;;14.38;11.52;;;9.50;99.90;;;;;;4960967;28;20477;-78
2024/01/04 12:35:57;;;;;;;12.27;10.15;;;9.50;99.90;;;;;;4960112;28;20045;-78
2024/01/04 12:38:24;;;;;;;17.05;11.57;;;9.50;99.90;;;;;;4960987;28;20041;-78
2024/01/04 12:40:51;;;;;;;14.00;10.88;;;9.50;99.90;;;;;;4961029;28;20385;-79
2024/01/04 12:43:20;;;;;;;13.02;9.63;;;9.50;99.90;;;;;;4961469;28;20030;-78
2024/01/04 12:45:49;;;;;;;11.43;9.63;;;9.50;99.90;;;;;;4963290;28;20038;-78
2024/01/04 12:48:20;;;;;;;17.63;11.90;;;9.60;99.90;;;;;;4962410;28;20038;-78